createdAt,value
2024-02-17T00:00:07.555Z,87.00
2024-02-17T00:02:34.891Z,86.90
2024-02-17T00:05:03.075Z,87.00
2024-02-17T00:07:30.443Z,87.00
2024-02-17T00:09:57.849Z,87.10
2024-02-17T00:12:25.031Z,86.90
2024-02-17T00:14:51.996Z,87.00
2024-02-17T00:17:18.842Z,87.10
2024-02-17T00:19:47.930Z,87.00
2024-02-17T00:22:15.744Z,86.90
2024-02-17T00:24:42.755Z,87.00
2024-02-17T00:27:10.859Z,87.00
2024-02-17T00:29:38.056Z,87.00
2024-02-17T00:32:05.320Z,86.90
2024-02-17T00:34:32.341Z,86.90
2024-02-17T00:37:00.333Z,86.90
2024-02-17T00:39:27.569Z,86.90
2024-02-17T00:41:54.509Z,86.90
2024-02-17T00:44:21.276Z,86.80
2024-02-17T00:46:48.136Z,86.80
2024-02-17T00:49:15.209Z,86.80
2024-02-17T00:51:42.179Z,86.80
2024-02-17T00:54:09.340Z,86.80
2024-02-17T00:56:36.175Z,86.70
2024-02-17T00:59:03.154Z,86.70
2024-02-17T01:01:36.790Z,86.60
2024-02-17T01:04:07.122Z,86.60
2024-02-17T01:06:34.329Z,86.60
2024-02-17T01:09:01.388Z,86.60
2024-02-17T01:11:28.338Z,86.60
2024-02-17T01:13:55.182Z,86.60
2024-02-17T01:16:21.984Z,86.60
2024-02-17T01:18:49.542Z,86.60
2024-02-17T01:21:16.848Z,86.60
2024-02-17T01:23:44.017Z,86.50
2024-02-17T01:26:10.955Z,86.60
2024-02-17T01:28:37.878Z,86.50
2024-02-17T01:31:07.756Z,86.50
2024-02-17T01:33:34.593Z,86.40
2024-02-17T01:36:01.611Z,86.50
2024-02-17T01:38:28.576Z,86.40
2024-02-17T01:40:55.600Z,86.40
2024-02-17T01:43:22.432Z,86.40
2024-02-17T01:45:49.460Z,86.40
2024-02-17T01:48:16.756Z,86.40
2024-02-17T01:50:45.086Z,86.40
2024-02-17T01:53:12.348Z,86.30
2024-02-17T01:55:39.732Z,86.30
2024-02-17T01:58:06.569Z,86.30
2024-02-17T02:00:34.531Z,86.30
2024-02-17T02:03:02.523Z,86.20
2024-02-17T02:05:29.624Z,86.30
2024-02-17T02:07:56.517Z,86.20
2024-02-17T02:10:23.966Z,86.20
2024-02-17T02:12:51.156Z,86.30
2024-02-17T02:15:18.347Z,86.30
2024-02-17T02:17:46.386Z,86.30
2024-02-17T02:20:15.757Z,86.30
2024-02-17T02:22:46.870Z,86.30
2024-02-17T02:25:25.964Z,86.30
2024-02-17T02:27:57.006Z,86.40
2024-02-17T02:30:24.660Z,86.40
2024-02-17T02:32:58.734Z,86.40
2024-02-17T02:35:25.852Z,86.30
2024-02-17T02:37:52.771Z,86.30
2024-02-17T02:40:19.610Z,86.30
2024-02-17T02:42:46.409Z,86.30
2024-02-17T02:45:13.389Z,86.30
2024-02-17T02:47:40.238Z,86.20
2024-02-17T02:50:07.418Z,86.30
2024-02-17T02:52:34.270Z,86.20
2024-02-17T02:55:01.108Z,86.20
2024-02-17T02:57:27.953Z,86.20
2024-02-17T02:59:54.724Z,86.20
2024-02-17T03:02:21.509Z,86.20
2024-02-17T03:04:48.676Z,86.30
2024-02-17T03:07:15.550Z,86.30
2024-02-17T03:09:42.393Z,86.20
2024-02-17T03:12:09.572Z,86.30
2024-02-17T03:14:38.210Z,86.30
2024-02-17T03:17:05.325Z,86.20
2024-02-17T03:19:32.412Z,86.20
2024-02-17T03:21:59.321Z,86.10
2024-02-17T03:24:26.123Z,86.20
2024-02-17T03:26:53.649Z,86.20
2024-02-17T03:29:20.493Z,86.20
2024-02-17T03:31:47.548Z,86.10
2024-02-17T03:34:14.639Z,86.10
2024-02-17T03:36:41.540Z,86.00
2024-02-17T03:39:10.218Z,86.00
2024-02-17T03:41:37.754Z,86.00
2024-02-17T03:44:05.330Z,86.00
2024-02-17T03:46:33.441Z,86.00
2024-02-17T03:49:00.627Z,86.00
2024-02-17T03:51:27.750Z,85.90
2024-02-17T03:53:54.623Z,85.90
2024-02-17T03:56:21.499Z,85.90
2024-02-17T03:58:49.159Z,85.90
2024-02-17T04:01:16.543Z,85.90
2024-02-17T04:03:43.679Z,85.90
2024-02-17T04:06:10.792Z,86.00
2024-02-17T04:08:37.786Z,85.90
2024-02-17T04:11:04.873Z,85.90
2024-02-17T04:13:31.964Z,85.90
2024-02-17T04:15:58.788Z,85.90
2024-02-17T04:18:25.796Z,85.90
2024-02-17T04:20:52.995Z,85.90
2024-02-17T04:23:19.770Z,85.90
2024-02-17T04:25:46.557Z,86.00
2024-02-17T04:28:13.355Z,86.00
2024-02-17T04:30:40.353Z,86.10
2024-02-17T04:33:07.332Z,86.10
2024-02-17T04:35:34.146Z,86.10
2024-02-17T04:38:00.921Z,86.10
2024-02-17T04:40:27.712Z,86.20
2024-02-17T04:42:57.821Z,86.20
2024-02-17T04:45:26.322Z,86.20
2024-02-17T04:47:53.401Z,86.30
2024-02-17T04:50:20.278Z,86.30
2024-02-17T04:52:47.071Z,86.30
2024-02-17T04:55:14.067Z,86.40
2024-02-17T04:57:40.934Z,86.40
2024-02-17T05:00:08.379Z,86.50
2024-02-17T05:02:37.717Z,86.60
2024-02-17T05:05:05.009Z,86.60
2024-02-17T05:07:31.844Z,86.60
2024-02-17T05:09:58.710Z,86.70
2024-02-17T05:12:25.816Z,86.70
2024-02-17T05:14:52.845Z,86.70
2024-02-17T05:17:19.720Z,86.70
2024-02-17T05:19:47.282Z,86.60
2024-02-17T05:22:14.357Z,86.70
2024-02-17T05:24:44.354Z,86.70
2024-02-17T05:27:11.610Z,86.70
2024-02-17T05:29:39.586Z,86.70
2024-02-17T05:32:09.913Z,86.70
2024-02-17T05:34:38.088Z,86.70
2024-02-17T05:37:06.079Z,86.70
2024-02-17T05:39:33.577Z,86.70
2024-02-17T05:42:01.288Z,86.70
2024-02-17T05:44:28.698Z,86.70
2024-02-17T05:46:55.621Z,86.70
2024-02-17T05:49:24.096Z,86.70
2024-02-17T05:51:55.584Z,86.70
2024-02-17T05:54:22.587Z,86.60
2024-02-17T05:56:52.105Z,86.70
2024-02-17T05:59:18.890Z,86.70
2024-02-17T06:01:47.505Z,86.70
2024-02-17T06:04:15.584Z,86.70
2024-02-17T06:06:42.706Z,86.80
2024-02-17T06:09:09.695Z,86.80
2024-02-17T06:11:36.603Z,86.80
2024-02-17T06:14:03.606Z,86.90
2024-02-17T06:16:30.756Z,86.90
2024-02-17T06:19:16.692Z,86.90
2024-02-17T06:21:43.836Z,87.00
2024-02-17T06:24:11.046Z,87.10
2024-02-17T06:26:38.115Z,87.00
2024-02-17T06:29:05.461Z,87.00
2024-02-17T06:31:34.855Z,86.90
2024-02-17T06:34:04.546Z,86.90
2024-02-17T06:36:31.740Z,86.80
2024-02-17T06:38:58.893Z,86.90
2024-02-17T06:41:25.766Z,86.90
2024-02-17T06:43:52.588Z,86.90
2024-02-17T06:46:19.452Z,86.90
2024-02-17T06:48:50.829Z,87.00
2024-02-17T06:51:18.847Z,87.00
2024-02-17T06:53:46.323Z,87.00
2024-02-17T06:56:13.391Z,87.10
2024-02-17T06:58:40.309Z,87.10
2024-02-17T07:01:07.229Z,87.10
2024-02-17T07:03:34.271Z,87.00
2024-02-17T07:06:01.330Z,87.00
2024-02-17T07:08:37.818Z,87.10
2024-02-17T07:11:08.865Z,87.10
2024-02-17T07:13:41.571Z,87.10
2024-02-17T07:16:08.828Z,87.10
2024-02-17T07:18:35.921Z,87.20
2024-02-17T07:21:06.692Z,87.10
2024-02-17T07:23:33.544Z,87.20
2024-02-17T07:26:01.282Z,87.30
2024-02-17T07:28:28.116Z,87.20
2024-02-17T07:30:54.960Z,87.30
2024-02-17T07:33:22.054Z,87.30
2024-02-17T07:35:50.347Z,87.30
2024-02-17T07:38:17.216Z,87.30
2024-02-17T07:40:43.977Z,87.40
2024-02-17T07:43:10.902Z,87.40
2024-02-17T07:57:58.529Z,87.30
2024-02-17T08:00:25.699Z,87.30
2024-02-17T08:02:52.806Z,87.30
2024-02-17T08:05:21.059Z,87.30
2024-02-17T08:07:48.134Z,87.30
2024-02-17T08:10:15.375Z,87.50
2024-02-17T08:12:43.963Z,87.40
2024-02-17T08:15:11.333Z,87.50
2024-02-17T08:17:40.315Z,87.50
2024-02-17T08:20:07.697Z,87.50
2024-02-17T08:22:34.829Z,87.60
2024-02-17T08:25:02.485Z,87.50
2024-02-17T08:27:29.682Z,87.60
2024-02-17T08:29:56.827Z,87.60
2024-02-17T08:32:23.776Z,87.60
2024-02-17T08:34:51.558Z,87.60
2024-02-17T08:37:18.582Z,87.60
2024-02-17T08:39:49.840Z,87.50
2024-02-17T08:42:17.239Z,87.50
2024-02-17T08:44:44.514Z,87.60
2024-02-17T08:47:12.273Z,87.60
2024-02-17T08:49:39.348Z,87.60
2024-02-17T08:52:06.670Z,87.60
2024-02-17T08:54:33.587Z,87.50
2024-02-17T08:57:00.456Z,87.40
2024-02-17T08:59:27.320Z,87.50
2024-02-17T09:01:54.297Z,87.40
2024-02-17T09:07:01.499Z,87.30
2024-02-17T09:09:29.862Z,87.30
2024-02-17T09:11:56.941Z,87.20
2024-02-17T09:14:23.858Z,87.30
2024-02-17T09:16:50.691Z,87.30
2024-02-17T09:19:17.599Z,87.30
2024-02-17T09:21:44.620Z,87.30
2024-02-17T09:24:12.019Z,87.30
2024-02-17T09:26:38.918Z,87.30
2024-02-17T09:29:12.111Z,87.30
2024-02-17T09:31:38.884Z,87.10
2024-02-17T09:34:06.641Z,87.20
2024-02-17T09:36:33.678Z,87.20
2024-02-17T09:39:00.563Z,87.10
2024-02-17T09:41:27.353Z,87.00
2024-02-17T09:43:54.164Z,86.90
2024-02-17T09:46:25.379Z,86.90
2024-02-17T09:48:52.314Z,86.90
2024-02-17T09:51:20.691Z,86.80
2024-02-17T09:53:47.536Z,86.80
2024-02-17T09:56:14.287Z,86.70
2024-02-17T09:58:41.180Z,86.30
2024-02-17T10:01:08.163Z,85.50
2024-02-17T10:03:39.626Z,85.50
2024-02-17T10:06:13.859Z,85.70
2024-02-17T10:08:42.848Z,85.70
2024-02-17T10:11:13.026Z,85.40
2024-02-17T10:13:42.807Z,85.40
2024-02-17T10:16:13.376Z,85.10
2024-02-17T10:18:45.201Z,84.00
2024-02-17T10:21:13.189Z,85.00
2024-02-17T10:23:40.580Z,84.80
2024-02-17T10:26:08.249Z,84.80
2024-02-17T10:28:35.069Z,84.70
2024-02-17T10:31:03.651Z,84.50
2024-02-17T10:33:30.689Z,84.70
2024-02-17T10:35:59.309Z,84.90
2024-02-17T10:38:26.302Z,85.00
2024-02-17T10:40:53.624Z,84.50
2024-02-17T10:43:20.750Z,84.00
2024-02-17T10:45:54.795Z,83.30
2024-02-17T10:48:25.831Z,83.20
2024-02-17T10:50:53.281Z,82.90
2024-02-17T10:53:29.452Z,82.60
2024-02-17T10:55:59.051Z,82.30
2024-02-17T10:58:26.308Z,82.30
2024-02-17T11:00:53.713Z,82.10
2024-02-17T11:03:23.878Z,82.20
2024-02-17T11:05:55.681Z,82.30
2024-02-17T11:08:23.173Z,82.10
2024-02-17T11:10:50.020Z,82.10
2024-02-17T11:13:30.213Z,82.00
2024-02-17T11:16:07.299Z,81.80
2024-02-17T11:18:38.119Z,81.50
2024-02-17T11:21:05.516Z,81.20
2024-02-17T11:23:34.230Z,81.10
2024-02-17T11:26:01.624Z,80.90
2024-02-17T11:28:28.486Z,80.90
2024-02-17T11:30:57.871Z,80.60
2024-02-17T11:33:30.210Z,80.50
2024-02-17T11:36:02.539Z,80.30
2024-02-17T11:38:31.245Z,79.70
2024-02-17T11:41:03.051Z,79.30
2024-02-17T11:43:32.660Z,79.10
2024-02-17T11:46:00.266Z,78.80
2024-02-17T11:48:28.924Z,76.30
2024-02-17T11:51:15.379Z,78.50
2024-02-17T11:53:45.239Z,78.30
2024-02-17T11:56:13.281Z,78.30
2024-02-17T11:58:40.269Z,78.10
2024-02-17T12:01:07.180Z,78.30
2024-02-17T12:03:35.578Z,78.40
2024-02-17T12:06:02.938Z,78.30
2024-02-17T12:08:31.670Z,78.20
2024-02-17T12:10:58.914Z,78.20
2024-02-17T12:13:26.258Z,78.20
2024-02-17T12:15:53.245Z,78.00
2024-02-17T12:18:20.705Z,77.90
2024-02-17T12:20:50.046Z,77.80
2024-02-17T12:23:18.521Z,77.70
2024-02-17T12:25:45.453Z,77.60
2024-02-17T12:28:14.261Z,77.40
2024-02-17T12:30:49.346Z,77.10
2024-02-17T12:33:21.213Z,77.20
2024-02-17T12:35:49.796Z,77.30
2024-02-17T12:38:20.657Z,77.30
2024-02-17T12:40:49.149Z,76.90
2024-02-17T12:43:23.032Z,76.50
2024-02-17T12:45:51.415Z,76.40
2024-02-17T12:48:22.109Z,76.40
2024-02-17T12:50:50.240Z,76.20
2024-02-17T12:53:24.344Z,75.90
2024-02-17T12:55:53.766Z,76.30
2024-02-17T12:58:21.166Z,76.10
2024-02-17T13:00:48.326Z,75.80
2024-02-17T13:03:15.440Z,75.60
2024-02-17T13:05:48.656Z,76.00
2024-02-17T13:08:16.112Z,76.20
2024-02-17T13:10:43.990Z,74.60
2024-02-17T13:13:11.621Z,74.00
2024-02-17T13:15:38.466Z,72.80
2024-02-17T13:18:06.910Z,72.00
2024-02-17T13:20:33.735Z,71.60
2024-02-17T13:23:00.712Z,71.80
2024-02-17T13:25:27.491Z,71.40
2024-02-17T13:27:54.629Z,71.00
2024-02-17T13:30:22.522Z,70.60
2024-02-17T13:32:49.452Z,70.20
2024-02-17T13:35:18.309Z,70.40
2024-02-17T13:37:45.750Z,69.20
2024-02-17T13:40:14.004Z,68.00
2024-02-17T13:42:42.848Z,67.20
2024-02-17T13:45:10.091Z,67.00
2024-02-17T13:47:37.341Z,65.70
2024-02-17T13:50:08.852Z,65.20
2024-02-17T13:52:35.849Z,65.50
2024-02-17T13:55:03.364Z,64.90
2024-02-17T13:57:31.420Z,63.70
2024-02-17T14:00:00.163Z,62.90
2024-02-17T14:02:30.862Z,61.80
2024-02-17T14:05:00.351Z,61.50
2024-02-17T14:07:28.846Z,61.90
2024-02-17T14:09:56.956Z,60.40
2024-02-17T14:12:24.641Z,62.80
2024-02-17T14:14:52.033Z,63.10
2024-02-17T14:17:19.122Z,63.30
2024-02-17T14:19:47.786Z,63.40
2024-02-17T14:22:17.646Z,63.50
2024-02-17T14:24:44.619Z,63.80
2024-02-17T14:27:11.869Z,64.30
2024-02-17T14:29:41.818Z,64.50
2024-02-17T14:32:09.041Z,64.70
2024-02-17T14:34:36.009Z,64.70
2024-02-17T14:37:03.234Z,64.90
2024-02-17T14:39:30.096Z,65.10
2024-02-17T14:41:56.869Z,65.30
2024-02-17T14:44:23.769Z,65.60
2024-02-17T14:46:50.682Z,65.70
2024-02-17T14:49:18.270Z,65.70
2024-02-17T14:51:47.363Z,65.60
2024-02-17T14:54:14.543Z,65.60
2024-02-17T14:56:41.365Z,65.70
2024-02-17T14:59:08.128Z,65.60
2024-02-17T15:01:35.858Z,65.90
2024-02-17T15:04:03.252Z,65.80
2024-02-17T15:06:30.429Z,65.60
2024-02-17T15:08:57.336Z,65.60
2024-02-17T15:11:24.253Z,65.60
2024-02-17T15:13:51.607Z,65.60
2024-02-17T15:16:18.850Z,65.70
2024-02-17T15:18:46.228Z,65.70
2024-02-17T15:21:13.157Z,65.80
2024-02-17T15:23:40.088Z,65.80
2024-02-17T15:26:07.997Z,65.90
2024-02-17T15:28:35.291Z,66.00
2024-02-17T15:31:02.263Z,66.40
2024-02-17T15:33:29.602Z,66.70
2024-02-17T15:35:57.577Z,66.90
2024-02-17T15:38:26.715Z,67.20
2024-02-17T15:40:55.924Z,67.60
2024-02-17T15:43:22.916Z,67.70
2024-02-17T15:45:49.799Z,67.90
2024-02-17T15:48:17.989Z,68.00
2024-02-17T15:50:44.957Z,68.10
2024-02-17T15:53:12.080Z,68.40
2024-02-17T15:55:38.909Z,68.30
2024-02-17T15:58:05.993Z,68.40
2024-02-17T16:00:33.170Z,68.40
2024-02-17T16:03:00.172Z,68.40
2024-02-17T16:05:27.434Z,68.40
2024-02-17T16:07:54.397Z,68.60
2024-02-17T16:10:21.332Z,68.60
2024-02-17T16:12:48.515Z,68.80
2024-02-17T16:15:19.548Z,68.80
2024-02-17T16:17:51.600Z,68.90
2024-02-17T16:20:18.849Z,69.00
2024-02-17T16:22:48.644Z,69.30
2024-02-17T17:59:32.551Z,72.50
2024-02-17T18:01:59.402Z,72.30
2024-02-17T18:04:26.325Z,72.40
2024-02-17T18:06:53.943Z,72.60
2024-02-17T18:09:22.894Z,72.80
2024-02-17T18:11:50.104Z,73.00
2024-02-17T18:14:17.100Z,73.10
2024-02-17T18:16:44.161Z,73.30
2024-02-17T18:19:11.701Z,73.40
2024-02-17T18:21:39.585Z,73.60
2024-02-17T18:24:07.087Z,73.80
2024-02-17T18:26:34.041Z,73.90
2024-02-17T18:29:01.074Z,73.90
2024-02-17T18:31:29.434Z,74.00
2024-02-17T18:33:56.336Z,74.00
2024-02-17T18:36:23.265Z,74.30
2024-02-17T18:38:50.144Z,74.90
2024-02-17T18:41:17.468Z,74.90
2024-02-17T18:43:44.424Z,75.30
2024-02-17T18:46:11.837Z,75.30
2024-02-17T18:48:39.116Z,75.60
2024-02-17T18:51:08.292Z,75.30
2024-02-17T18:53:37.379Z,75.40
2024-02-17T18:56:05.877Z,75.50
2024-02-17T18:58:32.654Z,75.50
2024-02-17T19:00:59.727Z,75.70
2024-02-17T19:03:26.632Z,75.90
2024-02-17T19:05:53.906Z,76.10
2024-02-17T19:08:21.149Z,76.20
2024-02-17T19:10:49.062Z,76.20
2024-02-17T19:13:16.067Z,76.30
2024-02-17T19:15:42.895Z,76.20
2024-02-17T19:18:09.682Z,76.20
2024-02-17T19:20:36.669Z,76.30
2024-02-17T19:23:08.157Z,76.30
2024-02-17T19:25:35.123Z,76.40
2024-02-17T19:28:02.008Z,76.40
2024-02-17T19:30:28.895Z,76.30
2024-02-17T19:32:56.165Z,76.40
2024-02-17T19:35:23.323Z,76.40
2024-02-17T19:37:50.234Z,76.40
2024-02-17T19:40:19.238Z,76.50
2024-02-17T19:42:47.046Z,76.60
2024-02-17T19:45:14.399Z,76.70
2024-02-17T19:47:41.484Z,76.70
2024-02-17T19:50:11.018Z,76.70
2024-02-17T19:52:39.009Z,76.70
2024-02-17T19:55:06.568Z,76.60
2024-02-17T19:57:34.330Z,76.80
2024-02-17T20:00:01.965Z,76.80
2024-02-17T20:02:28.940Z,76.80
2024-02-17T20:04:56.182Z,76.90
2024-02-17T20:07:24.718Z,76.80
2024-02-17T20:09:51.615Z,76.90
2024-02-17T20:12:20.797Z,77.00
2024-02-17T20:14:50.020Z,77.00
2024-02-17T20:17:16.902Z,76.90
2024-02-17T20:19:46.143Z,77.00
2024-02-17T20:22:13.190Z,77.00
2024-02-17T20:24:40.155Z,77.00
2024-02-17T20:27:07.327Z,77.00
2024-02-17T20:29:34.149Z,77.00
2024-02-17T20:32:01.153Z,77.00
2024-02-17T20:34:28.092Z,77.10
2024-02-17T20:36:57.834Z,77.10
2024-02-17T20:39:24.724Z,77.20
2024-02-17T20:41:54.622Z,77.20
2024-02-17T20:44:27.533Z,77.30
2024-02-17T20:46:57.699Z,77.30
2024-02-17T20:49:24.623Z,77.50
2024-02-17T20:51:51.610Z,77.50
2024-02-17T20:54:19.068Z,77.60
2024-02-17T20:56:46.863Z,77.60
2024-02-17T20:59:21.580Z,77.60
2024-02-17T21:01:49.577Z,77.70
2024-02-17T21:04:16.814Z,77.80
2024-02-17T21:06:43.828Z,77.80
2024-02-17T21:09:10.704Z,77.90
2024-02-17T21:11:37.731Z,78.00
2024-02-17T21:14:06.844Z,77.90
2024-02-17T21:16:33.653Z,77.80
2024-02-17T21:19:00.852Z,77.90
2024-02-17T21:21:28.809Z,78.00
2024-02-17T21:23:56.245Z,78.00
2024-02-17T21:26:23.296Z,78.00
2024-02-17T21:28:50.136Z,78.10
2024-02-17T21:31:16.899Z,78.20
2024-02-17T21:33:44.081Z,78.30
2024-02-17T21:36:14.059Z,78.30
2024-02-17T21:38:40.929Z,78.40
2024-02-17T21:41:07.730Z,78.40
2024-02-17T21:43:35.775Z,78.40
2024-02-17T21:46:05.705Z,78.30
2024-02-17T21:48:32.647Z,78.30
2024-02-17T21:50:59.517Z,78.50
2024-02-17T21:53:26.393Z,78.60
2024-02-17T21:55:53.443Z,78.80
2024-02-17T21:58:20.208Z,78.90
2024-02-17T22:00:47.266Z,79.10
2024-02-17T22:03:14.296Z,79.20
2024-02-17T22:05:41.420Z,79.30
2024-02-17T22:08:08.319Z,79.40
2024-02-17T22:10:35.217Z,79.50
2024-02-17T22:13:02.184Z,79.60
2024-02-17T22:15:29.251Z,79.70
2024-02-17T22:17:56.172Z,79.70
2024-02-17T22:20:22.980Z,79.80
2024-02-17T22:22:49.765Z,79.90
2024-02-17T22:25:16.874Z,79.90
2024-02-17T22:27:44.706Z,79.90
2024-02-17T22:30:11.911Z,80.00
2024-02-17T22:32:39.626Z,80.10
2024-02-17T22:35:07.295Z,80.10
2024-02-17T22:37:34.394Z,80.20
2024-02-17T22:40:01.406Z,80.10
2024-02-17T22:42:28.414Z,80.30
2024-02-17T22:44:55.245Z,80.20
2024-02-17T22:47:22.068Z,80.20
2024-02-17T22:49:49.253Z,80.10
2024-02-17T22:52:16.257Z,80.20
2024-02-17T22:54:43.158Z,80.40
2024-02-17T22:57:10.966Z,80.50
2024-02-17T22:59:42.960Z,80.40
2024-02-17T23:02:10.270Z,80.70
2024-02-17T23:04:37.165Z,80.70
2024-02-17T23:07:04.348Z,80.70
2024-02-17T23:09:32.168Z,80.70
2024-02-17T23:14:44.509Z,80.80
2024-02-17T23:17:11.639Z,80.90
2024-02-17T23:19:38.654Z,81.10
2024-02-17T23:22:05.773Z,81.00
2024-02-17T23:24:32.732Z,81.00
2024-02-17T23:26:59.710Z,81.10
2024-02-17T23:29:26.848Z,81.10
2024-02-17T23:31:53.895Z,81.20
2024-02-17T23:34:21.390Z,81.20
2024-02-17T23:36:48.321Z,81.10
2024-02-17T23:39:15.310Z,81.10
2024-02-17T23:41:42.209Z,81.10
2024-02-17T23:44:09.877Z,81.10
2024-02-17T23:46:36.825Z,81.20
2024-02-17T23:49:04.044Z,81.20
2024-02-17T23:51:31.033Z,81.20
2024-02-17T23:53:58.020Z,81.20
2024-02-17T23:56:25.075Z,81.30
2024-02-17T23:58:55.057Z,81.30
